AirNav   Air Wisconsin pilot careers
 
 1730 users online  

48G Gavagan Field Airport
Yale, Michigan, USA

GOING TO YALE?


FAA INFORMATION EFFECTIVE 29 MARCH 2018

Location

FAA Identifier: 48G
Lat/Long: 43-06-12.4000N / 082-53-24.8000W
43-06.206667N / 082-53.413333W
43.1034444 / -82.8902222
(estimated)
Elevation: 800 ft. / 244 m (estimated)
Variation: 06W (1985)
From city: 4 miles SW of YALE, MI
Time zone: UTC -4 (UTC -5 during Standard Time)
Zip code: 48097

Airport Operations

Airport use: Open to the public
Activation date: 10/1975
Control tower: no
ARTCC: CLEVELAND CENTER
FSS: LANSING FLIGHT SERVICE STATION
NOTAMs facility: LAN (NOTAM-D service available)
Attendance: SAT-SUN IREG
CALL FOR RY COND.
Wind indicator: yes
Segmented circle: no

Airport Communications

CTAF: 122.9
WX AWOS-3P at D95 (17 nm W): 134.050 (810-664-5038)
WX AWOS-3 at PHN (20 nm SE): 118.375 (810-364-7787)

Nearby radio navigation aids

VOR radial/distance  VOR name  Freq  Var
PSIr052/37.2PONTIAC VORTAC111.0003W
FNTr084/38.5FLINT VORTAC116.9006W

Airport Services

Powerplant service: NONE
Bottled oxygen: NONE
Bulk oxygen: NONE

Runway Information

Runway 14/32

Dimensions: 1986 x 95 ft. / 605 x 29 m
Surface: turf, in fair condition
SOFT WHEN WET.
Runway edge markings: 14/32 THLD & RY 14 DSPLCD THLD MKD WITH TIRES.
RUNWAY 14  RUNWAY 32
Latitude: 43-06.335000N43-06.078333N
Longitude: 082-53.551667W082-53.275000W
Traffic pattern: leftleft
Displaced threshold: 690 ft.no
Runway end identifier lights: nono
Obstructions: 46 ft. tree, 186 ft. from runway, 60 ft. left of centerline, 4:1 slope to clear
APCH RATIO AT DSPLCD THLD 6:1; +25 FT TREES 75 FT L; 165 FT DSTC.
36 ft. trees, 360 ft. from runway, 65 ft. left of centerline, 10:1 slope to clear

Airport Ownership and Management from official FAA records

Ownership: Privately-owned
Owner: ROBERT J. GAVAGAN
13989 FULTON ROAD
LYNN, MI 48097
Phone 586-776-6038
Manager: ROBERT J. GAVAGAN
13989 FULTON RD
LYNN, MI 48097
Phone 586-776-6038.

Airport Operational Statistics

Aircraft based on the field: 1
Single engine airplanes: 1
    
Aircraft operations: 100/year *
50% transient general aviation
50% local general aviation
* for 12-month period ending 31 December 2014

Additional Remarks

NO SNOW REMOVAL.
RY 14/32 HAS 2 FT DITCH ADJ TO RY BOTH SIDES.

Instrument Procedures

There are no published instrument procedures at 48G.

Some nearby airports with instrument procedures:

77G - Marlette Airport (15 nm NW)
D95 - Dupont-Lapeer Airport (17 nm W)
D98 - Romeo State Airport (19 nm S)
KPHN - St Clair County International Airport (20 nm SE)
57D - Ray Community Airport (22 nm S)
 
Loc | Ops | Rwys | IFR | FBO | Links
Com | Nav | Svcs | Stats | Notes

AirNav Hotels Sweepstakes
 
Area around 48G (Gavagan Field Airport)
 
Road maps at: MapQuest Bing Google
 
Aerial photo
WARNING: Photo may not be current or correct
Aerial photo of 48G (Gavagan Field Airport)
Do you have a better or more recent aerial photo of Gavagan Field Airport that you would like to share? If so, please send us your photo.

 
Sectional chart

 
Airport distance calculator
Flying to Gavagan Field Airport? Find the distance to fly.

From to 48G

Sunrise and sunset
Times for 24-Apr-2018
 Local
(UTC-4)
 Zulu
(UTC)
Morning civil twilight06:0610:06
Sunrise06:3610:36
Sunset20:2300:23
Evening civil twilight20:5400:54

Current date and time
Zulu (UTC)  24-Apr-2018 19:20:21
Local (UTC-4)  24-Apr-2018 15:20:21
 
METAR
KD95 
17nm W 
241855Z AUTO 14011KT 10SM BKN042 OVC050 18/08 A3003 RMK AO2 T01810079
KPHN 
20nm SE 
241856Z AUTO 11010KT 10SM BKN070 17/06 A3005 RMK AO2
CYZR 
26nm E 
241800Z AUTO 13011G17KT 9SM FEW120 SCT170 SCT240 18/07 A3006 RMK SLP180 DENSITY ALT 900FT
KMTC 
29nm S 
241856Z 15010KT 10SM -DZ SCT050 OVC100 14/09 A3004 RMK AO2A DZB40 SLP179 P60000 T01380092
KCFS 
32nm NW 
241855Z AUTO 08006KT 10SM BKN047 OVC055 18/07 A3002 RMK AO2 T01760067
TAF
CYZR 
26nm E 
241340Z 2414/2502 14008KT P6SM SCT080 OVC100 TEMPO 2414/2418 BKN040 OVC080 BECMG 2414/2416 15012KT FM241800 15012KT P6SM BKN025 OVC080 TEMPO 2418/2422 BKN020 FM242200 13010KT 5SM -RA BR OVC020 RMK FCST BASED ON AUTO OBS. NXT FCST BY 242000Z
KMTC 
29nm S 
241700Z 2417/2523 11009KT 8000 -RA OVC020 QNH2997INS BECMG 2423/2424 VRB06KT 8000 -RA OVC010 QNH2983INS BECMG 2513/2514 33012G18KT 9999 NSW SCT010 OVC025 QNH2975INS TX17/2418Z TN06/2512Z
NOTAMs
Click for the latest NOTAMs
NOTAMs are issued by the DoD/FAA and will open in a separate window not controlled by AirNav.

 

 
 

Would you like to see your business listed on this page?

 If your business provides an interesting product or service to pilots, flight crews, aircraft, or users of the Gavagan Field Airport, you should consider listing it here.  To start the listing process, click on the button below
 
Add a business
 

Other Pages about Gavagan Field Airport

Page from the Michigan Airport Directory (PDF)
 
Update a link
 
Copyright © AirNav, LLC. All rights reserved. Privacy Policy  Contact